sensor_id;sensor_type;location;lat;lon;timestamp;pressure;altitude;pressure_sealevel;temperature;humidity
21096;BME280;10706;49.036;12.112;2023-12-14T00:01:46;96486.75;;;8.09;92.43
21096;BME280;10706;49.036;12.112;2023-12-14T00:04:12;96493.50;;;8.16;90.80
21096;BME280;10706;49.036;12.112;2023-12-14T00:06:38;96488.00;;;8.01;92.04
21096;BME280;10706;49.036;12.112;2023-12-14T00:09:03;96493.59;;;8.27;89.38
21096;BME280;10706;49.036;12.112;2023-12-14T00:11:29;96495.63;;;8.20;89.33
21096;BME280;10706;49.036;12.112;2023-12-14T00:13:55;96497.28;;;7.98;91.24
21096;BME280;10706;49.036;12.112;2023-12-14T00:16:21;96499.94;;;7.76;91.27
21096;BME280;10706;49.036;12.112;2023-12-14T00:18:47;96501.88;;;7.81;91.80
21096;BME280;10706;49.036;12.112;2023-12-14T00:21:13;96507.19;;;7.59;92.71
21096;BME280;10706;49.036;12.112;2023-12-14T00:23:38;96509.09;;;7.42;93.21
21096;BME280;10706;49.036;12.112;2023-12-14T00:26:04;96514.03;;;7.55;92.62
21096;BME280;10706;49.036;12.112;2023-12-14T00:28:30;96517.66;;;7.27;94.11
21096;BME280;10706;49.036;12.112;2023-12-14T00:30:56;96516.34;;;7.29;94.74
21096;BME280;10706;49.036;12.112;2023-12-14T00:33:21;96517.66;;;7.10;95.08
21096;BME280;10706;49.036;12.112;2023-12-14T00:35:48;96517.97;;;7.30;94.94
21096;BME280;10706;49.036;12.112;2023-12-14T00:38:13;96526.84;;;7.19;94.68
21096;BME280;10706;49.036;12.112;2023-12-14T00:40:39;96530.63;;;7.06;94.04
21096;BME280;10706;49.036;12.112;2023-12-14T00:43:05;96533.56;;;7.27;94.46
21096;BME280;10706;49.036;12.112;2023-12-14T00:45:31;96534.63;;;7.26;93.27
21096;BME280;10706;49.036;12.112;2023-12-14T00:47:57;96542.66;;;7.31;93.79
21096;BME280;10706;49.036;12.112;2023-12-14T00:50:22;96550.00;;;7.07;93.76
21096;BME280;10706;49.036;12.112;2023-12-14T00:52:48;96554.50;;;7.23;93.29
21096;BME280;10706;49.036;12.112;2023-12-14T00:55:14;96559.13;;;7.50;93.49
21096;BME280;10706;49.036;12.112;2023-12-14T00:57:40;96559.88;;;7.28;93.18
21096;BME280;10706;49.036;12.112;2023-12-14T01:00:06;96564.00;;;7.19;93.97
21096;BME280;10706;49.036;12.112;2023-12-14T01:02:32;96571.53;;;7.27;94.04
21096;BME280;10706;49.036;12.112;2023-12-14T01:04:58;96571.69;;;7.37;92.86
21096;BME280;10706;49.036;12.112;2023-12-14T01:07:24;96578.66;;;7.61;92.00
21096;BME280;10706;49.036;12.112;2023-12-14T01:09:50;96580.50;;;7.60;92.09
21096;BME280;10706;49.036;12.112;2023-12-14T01:12:15;96585.81;;;7.60;92.06
21096;BME280;10706;49.036;12.112;2023-12-14T01:14:41;96587.69;;;7.43;92.66
21096;BME280;10706;49.036;12.112;2023-12-14T01:17:07;96586.81;;;7.37;92.06
21096;BME280;10706;49.036;12.112;2023-12-14T01:19:32;96590.91;;;7.45;91.96
21096;BME280;10706;49.036;12.112;2023-12-14T01:21:58;96594.09;;;7.25;93.22
21096;BME280;10706;49.036;12.112;2023-12-14T01:24:24;96598.25;;;7.20;94.04
21096;BME280;10706;49.036;12.112;2023-12-14T01:26:49;96597.78;;;7.07;94.30
21096;BME280;10706;49.036;12.112;2023-12-14T01:29:15;96598.75;;;7.00;94.66
21096;BME280;10706;49.036;12.112;2023-12-14T01:31:41;96605.72;;;7.07;94.42
21096;BME280;10706;49.036;12.112;2023-12-14T01:34:06;96611.84;;;7.07;94.52
21096;BME280;10706;49.036;12.112;2023-12-14T01:36:32;96609.50;;;7.28;94.17
21096;BME280;10706;49.036;12.112;2023-12-14T01:38:58;96616.13;;;7.25;93.29
21096;BME280;10706;49.036;12.112;2023-12-14T01:41:23;96621.91;;;7.22;92.76
21096;BME280;10706;49.036;12.112;2023-12-14T01:43:49;96620.22;;;7.16;93.34
21096;BME280;10706;49.036;12.112;2023-12-14T01:46:15;96628.59;;;7.25;93.12
21096;BME280;10706;49.036;12.112;2023-12-14T01:48:42;96629.63;;;7.40;92.14
21096;BME280;10706;49.036;12.112;2023-12-14T01:51:07;96630.81;;;7.50;91.67
21096;BME280;10706;49.036;12.112;2023-12-14T01:53:33;96643.13;;;7.56;92.35
21096;BME280;10706;49.036;12.112;2023-12-14T01:55:59;96636.38;;;7.48;92.06
21096;BME280;10706;49.036;12.112;2023-12-14T01:58:25;96653.75;;;7.56;92.55
21096;BME280;10706;49.036;12.112;2023-12-14T02:03:49;96654.88;;;7.60;92.83
21096;BME280;10706;49.036;12.112;2023-12-14T02:06:15;96661.66;;;7.51;92.87
21096;BME280;10706;49.036;12.112;2023-12-14T02:08:41;96658.28;;;7.55;92.22
21096;BME280;10706;49.036;12.112;2023-12-14T02:11:07;96656.25;;;7.63;91.65
21096;BME280;10706;49.036;12.112;2023-12-14T02:13:33;96653.59;;;7.63;91.66
21096;BME280;10706;49.036;12.112;2023-12-14T02:15:59;96666.09;;;7.62;91.15
21096;BME280;10706;49.036;12.112;2023-12-14T02:18:25;96673.41;;;7.55;91.60
21096;BME280;10706;49.036;12.112;2023-12-14T02:20:51;96664.78;;;7.65;91.85
21096;BME280;10706;49.036;12.112;2023-12-14T02:23:17;96669.69;;;7.56;92.13
21096;BME280;10706;49.036;12.112;2023-12-14T02:25:42;96664.94;;;7.41;92.77
21096;BME280;10706;49.036;12.112;2023-12-14T02:28:08;96669.69;;;7.56;91.74
21096;BME280;10706;49.036;12.112;2023-12-14T02:30:34;96673.88;;;7.35;92.64
21096;BME280;10706;49.036;12.112;2023-12-14T02:33:00;96674.44;;;7.54;92.45
21096;BME280;10706;49.036;12.112;2023-12-14T02:35:25;96682.41;;;7.54;91.36
21096;BME280;10706;49.036;12.112;2023-12-14T02:37:51;96681.72;;;7.58;92.01
21096;BME280;10706;49.036;12.112;2023-12-14T02:40:17;96682.41;;;7.54;91.24
21096;BME280;10706;49.036;12.112;2023-12-14T02:42:43;96682.91;;;7.51;92.38
21096;BME280;10706;49.036;12.112;2023-12-14T02:45:09;96694.00;;;7.48;92.86
21096;BME280;10706;49.036;12.112;2023-12-14T02:47:35;96693.19;;;7.30;92.28
21096;BME280;10706;49.036;12.112;2023-12-14T02:50:00;96702.03;;;7.19;92.60
21096;BME280;10706;49.036;12.112;2023-12-14T02:52:26;96707.06;;;7.04;94.37
21096;BME280;10706;49.036;12.112;2023-12-14T02:54:52;96705.19;;;6.87;94.50
21096;BME280;10706;49.036;12.112;2023-12-14T02:57:18;96716.38;;;6.89;95.11
21096;BME280;10706;49.036;12.112;2023-12-14T02:59:44;96717.47;;;6.65;95.59
21096;BME280;10706;49.036;12.112;2023-12-14T03:02:10;96721.94;;;6.76;95.18
21096;BME280;10706;49.036;12.112;2023-12-14T03:04:39;96724.53;;;6.59;95.95
21096;BME280;10706;49.036;12.112;2023-12-14T03:07:09;96720.22;;;6.70;95.51
21096;BME280;10706;49.036;12.112;2023-12-14T03:09:34;96723.34;;;6.67;95.96
21096;BME280;10706;49.036;12.112;2023-12-14T03:12:01;96731.31;;;6.67;96.41
21096;BME280;10706;49.036;12.112;2023-12-14T03:14:32;96726.69;;;6.74;95.62
21096;BME280;10706;49.036;12.112;2023-12-14T03:16:59;96732.06;;;6.79;95.33
21096;BME280;10706;49.036;12.112;2023-12-14T03:19:25;96733.59;;;6.75;95.55
21096;BME280;10706;49.036;12.112;2023-12-14T03:21:50;96743.25;;;6.81;94.87
21096;BME280;10706;49.036;12.112;2023-12-14T03:24:16;96742.22;;;6.82;96.08
21096;BME280;10706;49.036;12.112;2023-12-14T03:26:42;96750.44;;;6.69;95.52
21096;BME280;10706;49.036;12.112;2023-12-14T03:29:08;96750.97;;;6.82;95.22
21096;BME280;10706;49.036;12.112;2023-12-14T03:31:34;96758.44;;;6.97;94.39
21096;BME280;10706;49.036;12.112;2023-12-14T03:34:01;96754.50;;;7.00;94.98
21096;BME280;10706;49.036;12.112;2023-12-14T03:36:26;96759.44;;;7.08;94.75
21096;BME280;10706;49.036;12.112;2023-12-14T03:38:53;96766.66;;;7.25;93.70
21096;BME280;10706;49.036;12.112;2023-12-14T03:41:19;96766.50;;;7.03;93.01
21096;BME280;10706;49.036;12.112;2023-12-14T03:43:44;96766.13;;;7.11;93.23
21096;BME280;10706;49.036;12.112;2023-12-14T03:46:10;96775.59;;;7.07;93.00
21096;BME280;10706;49.036;12.112;2023-12-14T03:48:36;96779.19;;;7.29;92.91
21096;BME280;10706;49.036;12.112;2023-12-14T03:51:05;96786.94;;;7.02;92.95
21096;BME280;10706;49.036;12.112;2023-12-14T03:53:32;96787.06;;;7.24;93.21
21096;BME280;10706;49.036;12.112;2023-12-14T03:56:00;96781.84;;;7.29;93.14
21096;BME280;10706;49.036;12.112;2023-12-14T03:58:26;96782.53;;;7.36;92.26
21096;BME280;10706;49.036;12.112;2023-12-14T04:00:52;96784.03;;;7.32;92.77
21096;BME280;10706;49.036;12.112;2023-12-14T04:03:18;96794.69;;;7.20;92.99
21096;BME280;10706;49.036;12.112;2023-12-14T04:05:44;96800.00;;;7.20;92.04
21096;BME280;10706;49.036;12.112;2023-12-14T04:08:10;96798.50;;;7.25;92.89
21096;BME280;10706;49.036;12.112;2023-12-14T04:10:36;96802.19;;;7.24;92.61
21096;BME280;10706;49.036;12.112;2023-12-14T04:13:01;96805.75;;;7.29;91.48
21096;BME280;10706;49.036;12.112;2023-12-14T04:15:27;96813.25;;;7.32;91.52
21096;BME280;10706;49.036;12.112;2023-12-14T04:17:53;96818.56;;;7.32;91.60
21096;BME280;10706;49.036;12.112;2023-12-14T04:20:19;96822.03;;;7.33;91.07
21096;BME280;10706;49.036;12.112;2023-12-14T04:22:45;96824.66;;;7.33;91.20
21096;BME280;10706;49.036;12.112;2023-12-14T04:25:11;96829.53;;;7.36;91.26
21096;BME280;10706;49.036;12.112;2023-12-14T04:27:36;96836.75;;;7.40;90.39
21096;BME280;10706;49.036;12.112;2023-12-14T04:30:03;96836.44;;;7.37;91.05
21096;BME280;10706;49.036;12.112;2023-12-14T04:32:30;96843.03;;;7.34;90.77
21096;BME280;10706;49.036;12.112;2023-12-14T04:34:56;96843.88;;;7.23;91.95
21096;BME280;10706;49.036;12.112;2023-12-14T04:37:22;96849.53;;;7.27;91.23
21096;BME280;10706;49.036;12.112;2023-12-14T04:39:47;96851.84;;;7.23;91.02
21096;BME280;10706;49.036;12.112;2023-12-14T04:42:13;96860.50;;;7.18;91.30
21096;BME280;10706;49.036;12.112;2023-12-14T04:44:39;96863.50;;;7.22;91.73
21096;BME280;10706;49.036;12.112;2023-12-14T04:47:04;96858.84;;;7.29;91.26
21096;BME280;10706;49.036;12.112;2023-12-14T04:49:30;96870.03;;;7.31;90.97
21096;BME280;10706;49.036;12.112;2023-12-14T04:51:56;96869.81;;;7.33;91.41
21096;BME280;10706;49.036;12.112;2023-12-14T04:54:22;96876.06;;;7.27;91.21
21096;BME280;10706;49.036;12.112;2023-12-14T04:56:48;96881.16;;;7.28;91.71
21096;BME280;10706;49.036;12.112;2023-12-14T04:59:13;96885.75;;;7.33;91.51
21096;BME280;10706;49.036;12.112;2023-12-14T05:01:39;96888.41;;;7.33;91.29
21096;BME280;10706;49.036;12.112;2023-12-14T05:04:05;96890.34;;;7.37;91.25
21096;BME280;10706;49.036;12.112;2023-12-14T05:06:30;96888.94;;;7.06;92.16
21096;BME280;10706;49.036;12.112;2023-12-14T05:08:58;96893.66;;;7.04;92.43
21096;BME280;10706;49.036;12.112;2023-12-14T05:11:24;96897.44;;;7.20;92.67
21096;BME280;10706;49.036;12.112;2023-12-14T05:13:50;96908.03;;;7.32;91.14
21096;BME280;10706;49.036;12.112;2023-12-14T05:16:16;96907.03;;;7.21;91.40
21096;BME280;10706;49.036;12.112;2023-12-14T05:18:42;96906.06;;;7.27;91.83
21096;BME280;10706;49.036;12.112;2023-12-14T05:21:07;96918.41;;;7.33;91.63
21096;BME280;10706;49.036;12.112;2023-12-14T05:23:33;96918.97;;;7.35;91.55
21096;BME280;10706;49.036;12.112;2023-12-14T05:26:00;96919.47;;;7.32;91.54
21096;BME280;10706;49.036;12.112;2023-12-14T05:28:26;96927.22;;;7.34;91.61
21096;BME280;10706;49.036;12.112;2023-12-14T05:30:51;96924.28;;;7.35;91.73
21096;BME280;10706;49.036;12.112;2023-12-14T05:33:17;96938.03;;;7.44;91.35
21096;BME280;10706;49.036;12.112;2023-12-14T05:35:43;96943.88;;;7.58;90.42
21096;BME280;10706;49.036;12.112;2023-12-14T05:38:09;96950.56;;;7.61;89.51
21096;BME280;10706;49.036;12.112;2023-12-14T05:40:34;96957.44;;;7.33;91.30
21096;BME280;10706;49.036;12.112;2023-12-14T05:43:00;96963.56;;;7.33;92.09
21096;BME280;10706;49.036;12.112;2023-12-14T05:45:26;96970.03;;;7.26;92.22
21096;BME280;10706;49.036;12.112;2023-12-14T05:47:52;96966.34;;;7.15;92.00
21096;BME280;10706;49.036;12.112;2023-12-14T05:50:17;96978.69;;;7.33;91.95
21096;BME280;10706;49.036;12.112;2023-12-14T05:52:43;96975.22;;;7.44;91.78
21096;BME280;10706;49.036;12.112;2023-12-14T05:55:11;96979.38;;;7.40;91.18
21096;BME280;10706;49.036;12.112;2023-12-14T05:57:37;96983.50;;;7.48;91.06
21096;BME280;10706;49.036;12.112;2023-12-14T06:00:04;96989.63;;;7.48;90.62
21096;BME280;10706;49.036;12.112;2023-12-14T06:02:31;96987.53;;;7.50;90.72
21096;BME280;10706;49.036;12.112;2023-12-14T06:04:58;96983.75;;;7.46;91.01
21096;BME280;10706;49.036;12.112;2023-12-14T06:07:24;96999.22;;;7.49;90.41
21096;BME280;10706;49.036;12.112;2023-12-14T06:09:50;97008.00;;;7.50;90.83
21096;BME280;10706;49.036;12.112;2023-12-14T06:12:16;97001.31;;;7.47;91.22
21096;BME280;10706;49.036;12.112;2023-12-14T06:14:42;97011.00;;;7.42;90.64
21096;BME280;10706;49.036;12.112;2023-12-14T06:17:10;97015.28;;;7.43;90.09
21096;BME280;10706;49.036;12.112;2023-12-14T06:19:36;97013.91;;;7.40;90.99
21096;BME280;10706;49.036;12.112;2023-12-14T06:22:02;97021.06;;;7.16;91.01
21096;BME280;10706;49.036;12.112;2023-12-14T06:24:28;97021.63;;;7.06;91.46
21096;BME280;10706;49.036;12.112;2023-12-14T06:26:54;97029.16;;;7.21;90.55
21096;BME280;10706;49.036;12.112;2023-12-14T06:29:20;97032.13;;;7.13;91.43
21096;BME280;10706;49.036;12.112;2023-12-14T06:31:46;97039.28;;;7.00;92.20
21096;BME280;10706;49.036;12.112;2023-12-14T06:34:12;97037.91;;;7.10;90.78
21096;BME280;10706;49.036;12.112;2023-12-14T06:36:42;97035.94;;;7.17;91.19
21096;BME280;10706;49.036;12.112;2023-12-14T06:39:09;97040.31;;;6.99;91.47
21096;BME280;10706;49.036;12.112;2023-12-14T06:41:36;97044.69;;;6.82;92.01
21096;BME280;10706;49.036;12.112;2023-12-14T06:44:02;97051.34;;;6.73;92.22
21096;BME280;10706;49.036;12.112;2023-12-14T06:46:28;97060.47;;;6.77;92.28
21096;BME280;10706;49.036;12.112;2023-12-14T06:48:54;97058.66;;;6.47;93.31
21096;BME280;10706;49.036;12.112;2023-12-14T06:51:21;97071.66;;;6.79;92.26
21096;BME280;10706;49.036;12.112;2023-12-14T06:53:47;97072.28;;;6.51;93.64
21096;BME280;10706;49.036;12.112;2023-12-14T06:56:14;97082.94;;;6.63;93.01
21096;BME280;10706;49.036;12.112;2023-12-14T06:58:42;97081.88;;;6.52;93.29
21096;BME280;10706;49.036;12.112;2023-12-14T07:01:16;97085.81;;;6.61;93.57
21096;BME280;10706;49.036;12.112;2023-12-14T07:03:44;97095.19;;;6.75;93.37
21096;BME280;10706;49.036;12.112;2023-12-14T07:06:14;97098.31;;;6.42;93.77
21096;BME280;10706;49.036;12.112;2023-12-14T07:08:41;97102.06;;;6.34;94.59
21096;BME280;10706;49.036;12.112;2023-12-14T07:11:08;97101.59;;;6.56;94.21
21096;BME280;10706;49.036;12.112;2023-12-14T07:13:34;97109.22;;;6.34;94.90
21096;BME280;10706;49.036;12.112;2023-12-14T07:16:08;97113.88;;;6.20;94.86
21096;BME280;10706;49.036;12.112;2023-12-14T07:18:36;97120.88;;;6.33;94.64
21096;BME280;10706;49.036;12.112;2023-12-14T07:21:03;97126.22;;;6.45;94.21
21096;BME280;10706;49.036;12.112;2023-12-14T07:23:29;97125.47;;;6.56;93.26
21096;BME280;10706;49.036;12.112;2023-12-14T07:25:55;97127.31;;;6.55;93.42
21096;BME280;10706;49.036;12.112;2023-12-14T07:28:22;97130.81;;;6.68;93.16
21096;BME280;10706;49.036;12.112;2023-12-14T07:30:48;97139.66;;;6.61;92.81
21096;BME280;10706;49.036;12.112;2023-12-14T07:33:15;97152.94;;;6.61;93.61
21096;BME280;10706;49.036;12.112;2023-12-14T07:35:41;97150.47;;;6.78;93.05
21096;BME280;10706;49.036;12.112;2023-12-14T07:38:07;97152.47;;;6.95;92.67
21096;BME280;10706;49.036;12.112;2023-12-14T07:40:33;97153.06;;;6.97;91.98
21096;BME280;10706;49.036;12.112;2023-12-14T07:42:58;97167.44;;;7.19;91.04
21096;BME280;10706;49.036;12.112;2023-12-14T07:45:24;97168.53;;;6.70;92.76
21096;BME280;10706;49.036;12.112;2023-12-14T07:47:50;97169.75;;;6.86;92.21
21096;BME280;10706;49.036;12.112;2023-12-14T07:50:17;97172.19;;;6.87;92.49
21096;BME280;10706;49.036;12.112;2023-12-14T07:52:44;97182.25;;;6.97;92.55
21096;BME280;10706;49.036;12.112;2023-12-14T07:55:11;97180.53;;;7.03;92.09
21096;BME280;10706;49.036;12.112;2023-12-14T07:57:39;97182.97;;;7.04;91.67
21096;BME280;10706;49.036;12.112;2023-12-14T08:00:06;97181.16;;;6.86;91.39
21096;BME280;10706;49.036;12.112;2023-12-14T08:02:34;97183.66;;;7.11;91.19
21096;BME280;10706;49.036;12.112;2023-12-14T08:05:00;97183.66;;;7.42;90.49
21096;BME280;10706;49.036;12.112;2023-12-14T08:07:26;97192.47;;;7.12;89.69
21096;BME280;10706;49.036;12.112;2023-12-14T08:09:55;97198.09;;;7.46;89.59
21096;BME280;10706;49.036;12.112;2023-12-14T08:12:22;97194.19;;;7.72;89.67
21096;BME280;10706;49.036;12.112;2023-12-14T08:14:48;97206.31;;;7.68;88.76
21096;BME280;10706;49.036;12.112;2023-12-14T08:17:14;97205.28;;;7.69;88.55
21096;BME280;10706;49.036;12.112;2023-12-14T08:19:40;97206.31;;;7.79;88.86
21096;BME280;10706;49.036;12.112;2023-12-14T08:22:06;97216.38;;;8.13;87.76
21096;BME280;10706;49.036;12.112;2023-12-14T08:24:33;97224.47;;;8.42;85.90
21096;BME280;10706;49.036;12.112;2023-12-14T08:26:58;97227.63;;;8.79;84.91
21096;BME280;10706;49.036;12.112;2023-12-14T08:29:24;97235.19;;;8.35;85.11
21096;BME280;10706;49.036;12.112;2023-12-14T08:31:50;97232.44;;;8.94;84.19
21096;BME280;10706;49.036;12.112;2023-12-14T08:34:16;97244.09;;;8.41;85.69
21096;BME280;10706;49.036;12.112;2023-12-14T08:36:42;97246.91;;;8.10;86.28
21096;BME280;10706;49.036;12.112;2023-12-14T08:39:07;97248.41;;;8.53;85.00
21096;BME280;10706;49.036;12.112;2023-12-14T08:41:33;97264.28;;;8.89;82.67
21096;BME280;10706;49.036;12.112;2023-12-14T08:43:59;97263.19;;;8.14;86.33
21096;BME280;10706;49.036;12.112;2023-12-14T08:46:25;97271.06;;;8.44;86.58
21096;BME280;10706;49.036;12.112;2023-12-14T08:48:51;97276.97;;;8.58;85.34
21096;BME280;10706;49.036;12.112;2023-12-14T08:51:18;97283.38;;;8.98;82.24
21096;BME280;10706;49.036;12.112;2023-12-14T08:53:46;97281.16;;;8.42;85.05
21096;BME280;10706;49.036;12.112;2023-12-14T08:56:12;97282.50;;;8.09;86.70
21096;BME280;10706;49.036;12.112;2023-12-14T08:58:37;97293.72;;;8.35;86.09
21096;BME280;10706;49.036;12.112;2023-12-14T09:01:04;97290.69;;;8.90;84.43
21096;BME280;10706;49.036;12.112;2023-12-14T09:03:29;97291.31;;;8.57;84.71
21096;BME280;10706;49.036;12.112;2023-12-14T09:05:55;97300.88;;;7.99;87.45
21096;BME280;10706;49.036;12.112;2023-12-14T09:08:21;97302.94;;;7.97;86.56
21096;BME280;10706;49.036;12.112;2023-12-14T09:10:47;97302.59;;;7.82;87.15
21096;BME280;10706;49.036;12.112;2023-12-14T09:13:13;97301.69;;;8.35;85.91
21096;BME280;10706;49.036;12.112;2023-12-14T09:15:38;97303.91;;;7.61;86.00
21096;BME280;10706;49.036;12.112;2023-12-14T09:18:04;97312.91;;;7.59;87.71
21096;BME280;10706;49.036;12.112;2023-12-14T09:20:31;97310.84;;;7.62;87.28
21096;BME280;10706;49.036;12.112;2023-12-14T09:22:57;97316.25;;;7.25;87.56
21096;BME280;10706;49.036;12.112;2023-12-14T09:25:23;97327.19;;;7.47;87.55
21096;BME280;10706;49.036;12.112;2023-12-14T09:27:50;97333.25;;;7.96;85.32
21096;BME280;10706;49.036;12.112;2023-12-14T09:30:16;97330.84;;;7.34;85.91
21096;BME280;10706;49.036;12.112;2023-12-14T09:32:43;97331.16;;;7.56;87.04
21096;BME280;10706;49.036;12.112;2023-12-14T09:35:08;97340.28;;;7.60;85.19
21096;BME280;10706;49.036;12.112;2023-12-14T09:37:34;97347.22;;;7.61;86.87
21096;BME280;10706;49.036;12.112;2023-12-14T09:40:01;97349.00;;;8.21;83.68
21096;BME280;10706;49.036;12.112;2023-12-14T09:42:28;97353.47;;;7.97;84.50
21096;BME280;10706;49.036;12.112;2023-12-14T09:45:02;97358.84;;;7.78;85.36
21096;BME280;10706;49.036;12.112;2023-12-14T09:47:28;97360.19;;;8.11;84.86
21096;BME280;10706;49.036;12.112;2023-12-14T09:49:54;97365.84;;;8.03;84.90
21096;BME280;10706;49.036;12.112;2023-12-14T09:52:19;97367.31;;;7.87;86.22
21096;BME280;10706;49.036;12.112;2023-12-14T09:54:45;97365.66;;;8.40;83.59
21096;BME280;10706;49.036;12.112;2023-12-14T09:57:11;97374.00;;;8.32;83.23
21096;BME280;10706;49.036;12.112;2023-12-14T09:59:37;97376.47;;;8.69;81.22
21096;BME280;10706;49.036;12.112;2023-12-14T10:02:13;97376.53;;;8.38;83.70
21096;BME280;10706;49.036;12.112;2023-12-14T10:04:39;97376.47;;;8.03;83.78
21096;BME280;10706;49.036;12.112;2023-12-14T10:07:05;97375.22;;;8.06;84.79
21096;BME280;10706;49.036;12.112;2023-12-14T10:09:37;97378.69;;;8.06;85.02
21096;BME280;10706;49.036;12.112;2023-12-14T10:12:08;97373.22;;;8.01;84.64
21096;BME280;10706;49.036;12.112;2023-12-14T10:14:35;97382.41;;;7.75;86.13
21096;BME280;10706;49.036;12.112;2023-12-14T10:17:21;97384.56;;;8.08;86.05
21096;BME280;10706;49.036;12.112;2023-12-14T10:19:49;97380.91;;;8.09;85.53
21096;BME280;10706;49.036;12.112;2023-12-14T10:22:17;97387.28;;;8.32;84.24
21096;BME280;10706;49.036;12.112;2023-12-14T10:24:47;97391.47;;;8.40;84.42
21096;BME280;10706;49.036;12.112;2023-12-14T10:27:15;97399.22;;;8.41;84.66
21096;BME280;10706;49.036;12.112;2023-12-14T10:29:42;97399.84;;;8.55;83.49
21096;BME280;10706;49.036;12.112;2023-12-14T10:32:10;97400.88;;;9.01;83.47
21096;BME280;10706;49.036;12.112;2023-12-14T10:34:37;97397.47;;;8.35;83.58
21096;BME280;10706;49.036;12.112;2023-12-14T10:37:06;97398.50;;;8.34;84.17
21096;BME280;10706;49.036;12.112;2023-12-14T10:39:36;97401.59;;;8.07;85.23
21096;BME280;10706;49.036;12.112;2023-12-14T10:42:04;97413.84;;;7.78;85.26
21096;BME280;10706;49.036;12.112;2023-12-14T10:44:36;97404.19;;;8.37;85.04
21096;BME280;10706;49.036;12.112;2023-12-14T10:47:03;97407.94;;;8.95;82.71
21096;BME280;10706;49.036;12.112;2023-12-14T10:49:34;97416.03;;;8.11;84.74
21096;BME280;10706;49.036;12.112;2023-12-14T10:52:01;97419.63;;;8.05;84.56
21096;BME280;10706;49.036;12.112;2023-12-14T10:54:29;97408.13;;;7.93;86.41
21096;BME280;10706;49.036;12.112;2023-12-14T10:56:57;97417.47;;;7.95;84.89
21096;BME280;10706;49.036;12.112;2023-12-14T10:59:26;97405.28;;;7.76;86.16
21096;BME280;10706;49.036;12.112;2023-12-14T11:01:54;97414.06;;;7.76;85.95
21096;BME280;10706;49.036;12.112;2023-12-14T11:04:21;97409.28;;;7.97;85.38
21096;BME280;10706;49.036;12.112;2023-12-14T11:06:47;97414.06;;;8.07;85.48
21096;BME280;10706;49.036;12.112;2023-12-14T11:09:18;97418.56;;;7.76;85.19
21096;BME280;10706;49.036;12.112;2023-12-14T11:14:19;97420.31;;;8.54;85.05
21096;BME280;10706;49.036;12.112;2023-12-14T11:16:48;97431.31;;;9.05;82.49
21096;BME280;10706;49.036;12.112;2023-12-14T11:19:25;97426.06;;;8.40;81.80
21096;BME280;10706;49.036;12.112;2023-12-14T11:24:23;97435.03;;;8.15;83.52
21096;BME280;10706;49.036;12.112;2023-12-14T11:26:52;97436.50;;;8.53;83.50
21096;BME280;10706;49.036;12.112;2023-12-14T11:29:18;97433.16;;;8.57;82.47
21096;BME280;10706;49.036;12.112;2023-12-14T11:31:45;97440.56;;;8.55;83.39
21096;BME280;10706;49.036;12.112;2023-12-14T11:34:11;97443.16;;;8.32;81.92
21096;BME280;10706;49.036;12.112;2023-12-14T11:36:37;97443.84;;;8.81;82.21
21096;BME280;10706;49.036;12.112;2023-12-14T11:39:09;97440.00;;;8.77;81.62
21096;BME280;10706;49.036;12.112;2023-12-14T11:41:35;97448.81;;;8.89;82.01
21096;BME280;10706;49.036;12.112;2023-12-14T11:44:02;97450.03;;;8.51;83.20
21096;BME280;10706;49.036;12.112;2023-12-14T11:46:29;97452.94;;;8.50;84.38
21096;BME280;10706;49.036;12.112;2023-12-14T11:48:57;97451.69;;;8.64;83.69
21096;BME280;10706;49.036;12.112;2023-12-14T11:51:23;97455.88;;;8.30;84.34
21096;BME280;10706;49.036;12.112;2023-12-14T11:53:51;97465.13;;;7.97;84.38
21096;BME280;10706;49.036;12.112;2023-12-14T11:56:18;97457.19;;;8.09;83.40
21096;BME280;10706;49.036;12.112;2023-12-14T11:58:45;97463.81;;;8.18;84.46
21096;BME280;10706;49.036;12.112;2023-12-14T12:01:17;97461.31;;;8.35;81.79
21096;BME280;10706;49.036;12.112;2023-12-14T12:03:44;97465.78;;;8.23;82.06
21096;BME280;10706;49.036;12.112;2023-12-14T12:06:21;97465.06;;;8.15;80.70
21096;BME280;10706;49.036;12.112;2023-12-14T12:08:48;97473.28;;;8.14;81.83
21096;BME280;10706;49.036;12.112;2023-12-14T12:11:22;97467.03;;;8.20;80.26
21096;BME280;10706;49.036;12.112;2023-12-14T12:13:52;97462.56;;;8.32;81.01
21096;BME280;10706;49.036;12.112;2023-12-14T12:16:18;97465.97;;;8.40;80.33
21096;BME280;10706;49.036;12.112;2023-12-14T12:18:44;97471.38;;;8.33;81.38
21096;BME280;10706;49.036;12.112;2023-12-14T12:21:11;97475.16;;;8.25;80.00
21096;BME280;10706;49.036;12.112;2023-12-14T12:23:38;97466.88;;;8.33;80.76
21096;BME280;10706;49.036;12.112;2023-12-14T12:26:04;97472.78;;;8.05;80.78
21096;BME280;10706;49.036;12.112;2023-12-14T12:28:31;97472.69;;;8.12;81.92
21096;BME280;10706;49.036;12.112;2023-12-14T12:30:57;97479.91;;;8.35;81.25
21096;BME280;10706;49.036;12.112;2023-12-14T12:33:23;97483.25;;;8.18;83.11
21096;BME280;10706;49.036;12.112;2023-12-14T12:35:49;97487.88;;;8.23;81.87
21096;BME280;10706;49.036;12.112;2023-12-14T12:38:15;97490.72;;;8.10;82.55
21096;BME280;10706;49.036;12.112;2023-12-14T12:40:42;97492.63;;;8.51;81.15
21096;BME280;10706;49.036;12.112;2023-12-14T12:43:08;97505.47;;;8.54;81.18
21096;BME280;10706;49.036;12.112;2023-12-14T12:45:34;97497.06;;;8.69;79.22
21096;BME280;10706;49.036;12.112;2023-12-14T12:48:01;97494.84;;;8.24;81.13
21096;BME280;10706;49.036;12.112;2023-12-14T12:50:29;97505.19;;;8.14;81.59
21096;BME280;10706;49.036;12.112;2023-12-14T12:52:55;97511.47;;;8.01;80.98
21096;BME280;10706;49.036;12.112;2023-12-14T12:55:20;97508.66;;;8.14;81.08
21096;BME280;10706;49.036;12.112;2023-12-14T12:57:48;97518.47;;;8.14;81.98
21096;BME280;10706;49.036;12.112;2023-12-14T13:00:14;97510.59;;;8.07;82.25
21096;BME280;10706;49.036;12.112;2023-12-14T13:02:41;97520.00;;;7.91;82.56
21096;BME280;10706;49.036;12.112;2023-12-14T13:05:08;97517.84;;;8.00;82.70